Time;durP1;ratioP1;P1;durP2;ratioP2;P2;SDS_P1;SDS_P2;PMS_P1;PMS_P2;Temp;Humidity;BMP_temperature;BMP_pressure;BME280_temperature;BME280_humidity;BME280_pressure;Samples;Min_cycle;Max_cycle;Signal;HPM_P1;HPM_P2
2023/01/10 00:02:24;;;;;;;3.07;1.00;;;;;;;;;;5078830;28;20198;-59
2023/01/10 00:04:53;;;;;;;4.33;1.00;;;;;;;;;;5076758;28;20263;-60
2023/01/10 00:07:21;;;;;;;2.23;1.00;;;;;;;;;;5078362;28;20203;-60
2023/01/10 00:09:49;;;;;;;3.03;1.13;;;;;;;;;;5077866;28;20210;-60
2023/01/10 00:15:02;;;;;;;3.03;1.20;;;;;;;;;;5078470;28;20272;-59
2023/01/10 00:17:32;;;;;;;4.07;1.20;;;;;;;;;;5077961;28;20217;-59
2023/01/10 00:20:00;;;;;;;3.03;1.00;;;;;;;;;;5077959;28;20210;-59
2023/01/10 00:22:28;;;;;;;4.50;1.37;;;;;;;;;;5078054;28;20210;-59
2023/01/10 00:24:56;;;;;;;3.43;1.10;;;;;;;;;;5077949;28;20206;-59
2023/01/10 00:27:24;;;;;;;2.57;1.30;;;;;;;;;;5078400;28;20293;-59
2023/01/10 00:29:56;;;;;;;5.23;1.10;;;;;;;;;;5077228;28;20712;-59
2023/01/10 00:32:24;;;;;;;4.43;1.00;;;;;;;;;;5078055;28;20273;-60
2023/01/10 00:34:54;;;;;;;2.93;1.00;;;;;;;;;;5077676;28;20265;-59
2023/01/10 00:37:22;;;;;;;4.23;1.30;;;;;;;;;;5078002;28;20681;-59
2023/01/10 00:39:50;;;;;;;3.27;1.13;;;;;;;;;;5078184;28;20212;-59
2023/01/10 00:45:04;;;;;;;4.30;1.00;;;;;;;;;;5078141;28;20210;-59
2023/01/10 00:47:32;;;;;;;1.03;0.80;;;;;;;;;;5077578;28;20569;-60
2023/01/10 00:50:02;;;;;;;5.63;1.13;;;;;;;;;;5077744;28;20202;-59
2023/01/10 00:52:32;;;;;;;4.47;1.07;;;;;;;;;;5078030;28;20285;-59
2023/01/10 00:55:00;;;;;;;1.47;1.00;;;;;;;;;;5077719;28;20685;-59
2023/01/10 00:57:28;;;;;;;5.07;1.03;;;;;;;;;;5077706;28;20206;-59
2023/01/10 00:59:56;;;;;;;3.60;1.10;;;;;;;;;;5077705;28;20309;-59
2023/01/10 01:02:24;;;;;;;3.00;0.90;;;;;;;;;;5077612;28;20210;-59
2023/01/10 01:04:52;;;;;;;2.77;1.10;;;;;;;;;;5077808;28;20245;-59
2023/01/10 01:07:22;;;;;;;8.33;1.20;;;;;;;;;;5077980;28;20221;-59
2023/01/10 01:12:36;;;;;;;2.67;0.83;;;;;;;;;;5077510;28;20712;-59
2023/01/10 01:15:04;;;;;;;2.13;0.97;;;;;;;;;;5077835;28;20267;-60
2023/01/10 01:17:32;;;;;;;3.43;1.30;;;;;;;;;;5077271;28;20253;-59
2023/01/10 01:20:00;;;;;;;3.83;1.03;;;;;;;;;;5077623;28;20210;-59
2023/01/10 01:22:30;;;;;;;3.23;0.80;;;;;;;;;;5077461;28;20206;-59
2023/01/10 01:24:58;;;;;;;3.07;0.90;;;;;;;;;;5077741;28;20216;-59
2023/01/10 01:27:26;;;;;;;1.57;0.80;;;;;;;;;;5077459;28;20232;-60
2023/01/10 01:29:54;;;;;;;6.90;1.37;;;;;;;;;;5077450;28;20584;-60
2023/01/10 01:32:22;;;;;;;6.13;2.00;;;;;;;;;;5077316;28;20236;-60
2023/01/10 01:34:50;;;;;;;5.63;1.20;;;;;;;;;;5077123;28;20261;-59
2023/01/10 01:37:18;;;;;;;2.87;1.20;;;;;;;;;;5077289;28;20656;-59
2023/01/10 01:39:48;;;;;;;3.20;1.40;;;;;;;;;;5077520;28;20213;-59
2023/01/10 01:42:24;;;;;;;3.00;1.00;;;;;;;;;;5080352;28;20260;-59
2023/01/10 01:45:19;;;;;;;2.13;1.30;;;;;;;;;;5069920;28;20202;-60
2023/01/10 01:47:49;;;;;;;2.60;1.20;;;;;;;;;;5068474;28;20238;-59
2023/01/10 01:50:19;;;;;;;2.80;1.07;;;;;;;;;;5081008;28;20228;-60
2023/01/10 01:52:49;;;;;;;2.63;1.23;;;;;;;;;;5081023;28;20236;-59
2023/01/10 01:55:18;;;;;;;4.50;1.47;;;;;;;;;;5080995;28;20202;-60
2023/01/10 01:57:47;;;;;;;1.67;0.80;;;;;;;;;;5080913;28;20308;-59
2023/01/10 02:00:15;;;;;;;4.37;1.20;;;;;;;;;;5080850;28;20245;-59
2023/01/10 02:02:45;;;;;;;3.70;1.10;;;;;;;;;;5081091;28;20313;-60
2023/01/10 02:05:28;;;;;;;1.83;0.97;;;;;;;;;;5080920;28;20217;-59
2023/01/10 02:07:58;;;;;;;5.73;1.20;;;;;;;;;;5080784;28;20576;-60
2023/01/10 02:10:32;;;;;;;8.13;1.93;;;;;;;;;;5080898;28;20206;-60
2023/01/10 02:13:02;;;;;;;6.20;1.50;;;;;;;;;;5080911;28;20313;-59
2023/01/10 02:15:30;;;;;;;10.60;1.90;;;;;;;;;;5066965;28;20267;-59
2023/01/10 02:17:59;;;;;;;5.07;1.30;;;;;;;;;;5080691;28;20230;-59
2023/01/10 02:20:28;;;;;;;3.50;1.40;;;;;;;;;;5080649;28;20683;-59
2023/01/10 02:23:19;;;;;;;4.43;1.40;;;;;;;;;;5080402;28;20756;-59
2023/01/10 02:26:08;;;;;;;2.93;0.87;;;;;;;;;;5077000;28;20229;-59
2023/01/10 02:28:48;;;;;;;5.10;1.67;;;;;;;;;;5080553;28;20229;-59
2023/01/10 02:31:32;;;;;;;7.13;1.70;;;;;;;;;;5076447;28;20202;-59
2023/01/10 02:34:05;;;;;;;4.73;1.50;;;;;;;;;;5079927;28;20649;-60
2023/01/10 02:36:38;;;;;;;6.90;1.53;;;;;;;;;;5080024;28;20328;-60
2023/01/10 02:39:09;;;;;;;3.50;1.40;;;;;;;;;;5079957;28;20689;-59
2023/01/10 02:41:41;;;;;;;5.80;1.37;;;;;;;;;;5079992;28;20658;-60
2023/01/10 02:44:13;;;;;;;3.87;1.20;;;;;;;;;;5079662;28;20218;-60
2023/01/10 02:46:45;;;;;;;3.57;1.10;;;;;;;;;;5080004;28;20277;-59
2023/01/10 02:49:15;;;;;;;3.13;1.50;;;;;;;;;;5079731;28;20661;-60
2023/01/10 02:51:43;;;;;;;3.10;1.20;;;;;;;;;;5079992;28;20214;-60
2023/01/10 02:54:12;;;;;;;4.37;1.43;;;;;;;;;;5078871;28;20230;-59
2023/01/10 02:57:07;;;;;;;4.47;1.23;;;;;;;;;;5079826;28;20609;-60
2023/01/10 02:59:53;;;;;;;5.90;1.40;;;;;;;;;;5080069;28;20210;-60
2023/01/10 03:02:31;;;;;;;5.53;1.33;;;;;;;;;;5075788;28;20206;-59
2023/01/10 03:05:04;;;;;;;11.97;1.90;;;;;;;;;;5079882;28;20206;-60
2023/01/10 03:07:34;;;;;;;4.07;1.17;;;;;;;;;;5079974;28;20198;-59
2023/01/10 03:10:05;;;;;;;7.57;1.40;;;;;;;;;;5079839;28;20202;-60
2023/01/10 03:12:36;;;;;;;8.30;1.80;;;;;;;;;;5079743;28;20292;-59
2023/01/10 03:15:05;;;;;;;5.80;1.37;;;;;;;;;;5079399;28;20206;-59
2023/01/10 03:17:33;;;;;;;7.23;1.40;;;;;;;;;;5079663;28;20261;-59
2023/01/10 03:20:04;;;;;;;3.60;1.40;;;;;;;;;;5079479;28;20248;-59
2023/01/10 03:22:35;;;;;;;6.20;1.13;;;;;;;;;;5079605;28;20289;-60
2023/01/10 03:25:04;;;;;;;7.53;1.87;;;;;;;;;;5079322;28;20217;-60
2023/01/10 03:27:34;;;;;;;6.50;1.50;;;;;;;;;;5079538;28;20234;-60
2023/01/10 03:30:06;;;;;;;3.90;1.47;;;;;;;;;;5079417;28;20239;-59
2023/01/10 03:32:35;;;;;;;11.00;1.43;;;;;;;;;;5079056;28;20256;-59
2023/01/10 03:35:05;;;;;;;2.67;1.13;;;;;;;;;;5078899;28;20238;-60
2023/01/10 03:37:35;;;;;;;4.57;1.13;;;;;;;;;;5079266;28;20236;-59
2023/01/10 03:40:08;;;;;;;3.73;1.27;;;;;;;;;;5079090;28;20202;-60
2023/01/10 03:45:28;;;;;;;6.87;1.63;;;;;;;;;;5078526;28;20246;-60
2023/01/10 03:47:57;;;;;;;2.97;1.50;;;;;;;;;;5070779;28;20586;-59
2023/01/10 03:50:27;;;;;;;4.10;1.70;;;;;;;;;;5071659;28;20212;-60
2023/01/10 03:52:56;;;;;;;6.23;2.07;;;;;;;;;;5077231;28;20256;-60
2023/01/10 03:55:26;;;;;;;9.90;1.87;;;;;;;;;;5078529;28;20213;-60
2023/01/10 03:57:54;;;;;;;7.47;1.50;;;;;;;;;;5078231;28;20697;-59
2023/01/10 04:00:23;;;;;;;3.10;1.70;;;;;;;;;;5078540;28;20206;-59
2023/01/10 04:02:51;;;;;;;2.43;1.00;;;;;;;;;;5078287;28;20704;-60
2023/01/10 04:05:19;;;;;;;8.67;1.93;;;;;;;;;;5077977;28;20649;-59
2023/01/10 04:07:48;;;;;;;4.03;1.67;;;;;;;;;;5078416;28;20212;-59
2023/01/10 04:10:17;;;;;;;5.27;1.50;;;;;;;;;;5078597;28;20217;-60
2023/01/10 04:12:45;;;;;;;5.87;2.00;;;;;;;;;;5078227;28;20705;-60
2023/01/10 04:15:13;;;;;;;4.57;1.40;;;;;;;;;;5077898;28;20661;-59
2023/01/10 04:17:41;;;;;;;4.97;1.63;;;;;;;;;;5078025;28;20261;-59
2023/01/10 04:20:09;;;;;;;9.47;1.80;;;;;;;;;;5076227;28;20673;-59
2023/01/10 04:22:37;;;;;;;3.90;1.60;;;;;;;;;;5076516;28;20257;-60
2023/01/10 04:25:07;;;;;;;5.87;1.53;;;;;;;;;;5076579;28;20202;-59
2023/01/10 04:27:35;;;;;;;4.70;1.53;;;;;;;;;;5076523;28;20234;-60
2023/01/10 04:30:04;;;;;;;4.33;1.83;;;;;;;;;;5076288;28;20244;-59
2023/01/10 04:32:32;;;;;;;8.33;1.70;;;;;;;;;;5075990;28;20238;-60
2023/01/10 04:35:00;;;;;;;3.97;1.60;;;;;;;;;;5077683;28;20245;-60
2023/01/10 04:37:28;;;;;;;5.17;1.63;;;;;;;;;;5077942;28;20229;-60
2023/01/10 04:39:56;;;;;;;4.80;1.43;;;;;;;;;;5078026;28;20581;-60
2023/01/10 04:42:25;;;;;;;7.73;2.00;;;;;;;;;;5077831;28;20240;-59
2023/01/10 04:44:53;;;;;;;6.13;1.47;;;;;;;;;;5077917;28;20594;-59
2023/01/10 04:47:21;;;;;;;9.40;1.83;;;;;;;;;;5077630;28;20198;-60
2023/01/10 04:49:49;;;;;;;3.23;1.13;;;;;;;;;;5077986;28;20206;-60
2023/01/10 04:52:17;;;;;;;3.90;1.17;;;;;;;;;;5078017;28;20216;-60
2023/01/10 04:54:45;;;;;;;8.33;1.60;;;;;;;;;;5077924;28;20233;-60
2023/01/10 04:57:13;;;;;;;9.13;1.97;;;;;;;;;;5077770;28;21553;-59
2023/01/10 04:59:43;;;;;;;6.97;1.60;;;;;;;;;;5076841;28;20203;-60
2023/01/10 05:02:11;;;;;;;5.60;1.57;;;;;;;;;;5076783;28;20568;-60
2023/01/10 05:04:40;;;;;;;9.77;1.60;;;;;;;;;;5076572;28;20574;-60
2023/01/10 05:07:08;;;;;;;6.33;1.47;;;;;;;;;;5076813;28;20203;-60
2023/01/10 05:09:36;;;;;;;6.57;1.67;;;;;;;;;;5076661;28;20624;-60
2023/01/10 05:12:04;;;;;;;5.90;1.67;;;;;;;;;;5076654;28;20194;-60
2023/01/10 05:14:32;;;;;;;8.50;1.90;;;;;;;;;;5073568;28;20226;-60
2023/01/10 05:17:02;;;;;;;7.37;1.70;;;;;;;;;;5078919;28;20198;-60
2023/01/10 05:19:30;;;;;;;3.23;1.50;;;;;;;;;;5080450;28;20314;-59
2023/01/10 05:21:58;;;;;;;4.83;1.50;;;;;;;;;;5080354;28;20245;-59
2023/01/10 05:24:26;;;;;;;3.27;1.90;;;;;;;;;;5080460;28;20232;-59
2023/01/10 05:26:54;;;;;;;4.23;1.53;;;;;;;;;;5080640;28;20208;-59
2023/01/10 05:29:22;;;;;;;6.57;2.63;;;;;;;;;;5080201;28;20199;-59
2023/01/10 05:31:50;;;;;;;6.83;1.67;;;;;;;;;;5079815;28;20673;-59
2023/01/10 05:34:20;;;;;;;5.77;1.43;;;;;;;;;;5079792;28;20641;-59
2023/01/10 05:36:48;;;;;;;6.33;2.67;;;;;;;;;;5080279;28;20236;-59
2023/01/10 05:39:16;;;;;;;3.43;1.60;;;;;;;;;;5080195;28;20218;-59
2023/01/10 05:41:44;;;;;;;8.37;1.57;;;;;;;;;;5079946;28;20202;-59
2023/01/10 05:44:12;;;;;;;7.57;2.00;;;;;;;;;;5080132;28;20233;-59
2023/01/10 05:46:41;;;;;;;6.90;1.60;;;;;;;;;;5080218;28;20226;-59
2023/01/10 05:49:09;;;;;;;11.97;2.03;;;;;;;;;;5079735;28;20194;-60
2023/01/10 05:51:39;;;;;;;4.07;1.77;;;;;;;;;;5079746;28;20202;-60
2023/01/10 05:54:07;;;;;;;12.37;2.40;;;;;;;;;;5079520;28;20304;-59
2023/01/10 05:56:35;;;;;;;5.87;1.67;;;;;;;;;;5080214;28;20202;-60
2023/01/10 05:59:03;;;;;;;3.87;1.87;;;;;;;;;;5079793;28;20225;-60
2023/01/10 06:01:43;;;;;;;8.07;2.43;;;;;;;;;;5078240;28;20242;-60
2023/01/10 06:04:12;;;;;;;9.03;2.33;;;;;;;;;;5079527;28;20229;-60
2023/01/10 06:06:41;;;;;;;7.97;1.97;;;;;;;;;;5079276;28;20571;-60
2023/01/10 06:09:09;;;;;;;8.83;1.97;;;;;;;;;;5079749;28;20226;-59
2023/01/10 06:11:37;;;;;;;4.13;1.87;;;;;;;;;;5080479;28;20207;-60
2023/01/10 06:14:06;;;;;;;4.93;2.00;;;;;;;;;;5077655;28;20232;-59
2023/01/10 06:16:34;;;;;;;8.83;2.03;;;;;;;;;;5079744;28;20666;-59
2023/01/10 06:19:02;;;;;;;3.97;2.30;;;;;;;;;;5075969;28;20305;-57
2023/01/10 06:21:30;;;;;;;4.77;1.30;;;;;;;;;;5080043;28;20281;-57
2023/01/10 06:24:00;;;;;;;4.53;1.70;;;;;;;;;;5080077;28;20250;-57
2023/01/10 06:26:28;;;;;;;4.70;2.17;;;;;;;;;;5087201;28;20213;-57
2023/01/10 06:28:57;;;;;;;8.90;2.30;;;;;;;;;;5080379;28;20198;-57
2023/01/10 06:31:25;;;;;;;9.70;2.03;;;;;;;;;;5080017;28;20194;-57
2023/01/10 06:37:21;;;;;;;10.00;3.10;;;;;;;;;;5071122;28;20675;-58
2023/01/10 06:40:05;;;;;;;7.73;2.57;;;;;;;;;;5077578;28;20218;-58
2023/01/10 06:42:33;;;;;;;6.23;1.83;;;;;;;;;;5079388;28;20277;-58
2023/01/10 06:45:01;;;;;;;6.47;2.23;;;;;;;;;;5079031;28;20228;-58
2023/01/10 06:47:29;;;;;;;5.70;1.87;;;;;;;;;;5079050;28;20699;-58
2023/01/10 06:49:57;;;;;;;4.40;2.23;;;;;;;;;;5086978;28;20255;-58
2023/01/10 06:52:25;;;;;;;10.87;2.03;;;;;;;;;;5079586;28;20225;-58
2023/01/10 06:54:53;;;;;;;5.80;2.03;;;;;;;;;;5079653;28;20203;-58
2023/01/10 06:57:23;;;;;;;9.60;2.53;;;;;;;;;;5079742;28;20214;-58
2023/01/10 06:59:51;;;;;;;9.63;2.90;;;;;;;;;;5079382;28;20229;-58
2023/01/10 07:02:18;;;;;;;6.43;2.87;;;;;;;;;;5079305;28;20518;-58
2023/01/10 07:04:48;;;;;;;9.53;2.93;;;;;;;;;;5079585;28;20206;-58
2023/01/10 07:07:16;;;;;;;11.10;4.03;;;;;;;;;;5079623;28;20234;-58
2023/01/10 07:09:45;;;;;;;10.07;2.23;;;;;;;;;;5079376;28;20636;-58
2023/01/10 07:12:13;;;;;;;7.27;2.10;;;;;;;;;;5079462;28;20612;-58
2023/01/10 07:14:42;;;;;;;10.27;2.80;;;;;;;;;;5068130;28;20259;-59
2023/01/10 07:17:10;;;;;;;9.17;1.90;;;;;;;;;;5072359;28;20248;-60
2023/01/10 07:19:38;;;;;;;6.27;1.97;;;;;;;;;;5078257;28;20258;-59
2023/01/10 07:22:06;;;;;;;5.27;2.03;;;;;;;;;;5078984;28;20225;-60
2023/01/10 07:24:34;;;;;;;5.23;1.73;;;;;;;;;;5078807;28;20284;-60
2023/01/10 07:27:02;;;;;;;3.20;1.70;;;;;;;;;;5075455;28;20202;-59
2023/01/10 07:29:30;;;;;;;4.27;1.77;;;;;;;;;;5067991;28;20643;-59
2023/01/10 07:32:00;;;;;;;4.53;1.93;;;;;;;;;;5079938;28;20210;-60
2023/01/10 07:34:28;;;;;;;10.97;2.20;;;;;;;;;;5068442;28;20242;-60
2023/01/10 07:36:56;;;;;;;5.13;1.73;;;;;;;;;;5078829;28;20206;-60
2023/01/10 07:39:25;;;;;;;12.63;2.03;;;;;;;;;;5077902;28;20721;-60
2023/01/10 07:41:54;;;;;;;5.13;2.00;;;;;;;;;;5078649;28;20206;-60
2023/01/10 07:44:25;;;;;;;4.63;1.60;;;;;;;;;;5082492;28;20280;-60
2023/01/10 07:46:54;;;;;;;3.63;2.40;;;;;;;;;;5076692;28;20202;-60
2023/01/10 07:49:24;;;;;;;2.43;1.70;;;;;;;;;;5066481;28;20248;-60
2023/01/10 07:51:52;;;;;;;11.90;2.60;;;;;;;;;;5077990;28;20241;-60
2023/01/10 07:54:21;;;;;;;3.60;1.90;;;;;;;;;;5077986;28;20240;-60
2023/01/10 07:56:49;;;;;;;6.33;2.60;;;;;;;;;;5078504;28;20206;-60
2023/01/10 07:59:17;;;;;;;3.23;1.83;;;;;;;;;;5078094;28;20253;-60
2023/01/10 08:01:46;;;;;;;10.00;3.30;;;;;;;;;;5077652;28;20615;-60
2023/01/10 08:04:14;;;;;;;5.43;2.20;;;;;;;;;;5078362;28;20258;-60
2023/01/10 08:06:46;;;;;;;7.70;2.37;;;;;;;;;;5078675;28;20241;-60
2023/01/10 08:09:15;;;;;;;5.93;2.27;;;;;;;;;;5078596;28;20198;-60
2023/01/10 08:11:43;;;;;;;6.37;2.20;;;;;;;;;;5078191;28;20240;-60
2023/01/10 08:14:11;;;;;;;4.33;1.80;;;;;;;;;;5078127;28;20257;-60
2023/01/10 08:16:42;;;;;;;3.13;1.37;;;;;;;;;;5077822;28;20201;-60
2023/01/10 08:19:15;;;;;;;5.23;2.10;;;;;;;;;;5078066;28;20210;-60
2023/01/10 08:21:43;;;;;;;7.00;1.80;;;;;;;;;;5064939;28;20214;-60
2023/01/10 08:24:13;;;;;;;5.77;1.70;;;;;;;;;;5077882;28;20705;-60
2023/01/10 08:26:41;;;;;;;6.13;1.73;;;;;;;;;;5069767;28;20266;-60
2023/01/10 08:29:09;;;;;;;5.97;2.03;;;;;;;;;;5077852;28;20715;-60
2023/01/10 08:31:37;;;;;;;9.97;2.40;;;;;;;;;;5077947;28;20198;-60
2023/01/10 08:34:06;;;;;;;5.57;1.97;;;;;;;;;;5066811;28;20275;-60
2023/01/10 08:36:34;;;;;;;10.53;2.53;;;;;;;;;;5077712;28;20666;-60
2023/01/10 08:39:02;;;;;;;6.97;2.43;;;;;;;;;;5077735;28;20260;-59
2023/01/10 08:41:32;;;;;;;7.87;2.50;;;;;;;;;;5077520;28;20204;-60
2023/01/10 08:44:00;;;;;;;6.23;2.50;;;;;;;;;;5077219;28;20222;-60
2023/01/10 08:46:28;;;;;;;10.17;2.97;;;;;;;;;;5077011;28;20221;-60
2023/01/10 08:48:56;;;;;;;10.97;2.33;;;;;;;;;;5066111;28;20658;-60
2023/01/10 08:51:24;;;;;;;7.77;2.03;;;;;;;;;;5076760;28;20209;-60
2023/01/10 08:53:52;;;;;;;7.40;2.03;;;;;;;;;;5077802;28;20244;-60
2023/01/10 08:56:20;;;;;;;4.73;2.73;;;;;;;;;;5077302;28;20586;-60
2023/01/10 08:58:49;;;;;;;10.70;3.17;;;;;;;;;;5077822;28;20210;-60
2023/01/10 09:01:17;;;;;;;7.00;2.67;;;;;;;;;;5077466;28;20268;-61
2023/01/10 09:03:46;;;;;;;10.60;3.67;;;;;;;;;;5078251;28;20232;-58
2023/01/10 09:06:14;;;;;;;6.23;1.90;;;;;;;;;;5066473;28;20249;-59
2023/01/10 09:08:42;;;;;;;9.57;2.13;;;;;;;;;;5078272;28;20211;-59
2023/01/10 09:11:10;;;;;;;6.43;2.00;;;;;;;;;;5077884;28;20293;-59
2023/01/10 09:13:39;;;;;;;7.73;2.13;;;;;;;;;;5077948;28;20226;-59
2023/01/10 09:16:08;;;;;;;4.93;2.50;;;;;;;;;;5077610;28;20258;-59
2023/01/10 09:18:37;;;;;;;5.43;1.77;;;;;;;;;;5077854;28;20265;-59
2023/01/10 09:21:05;;;;;;;6.87;2.17;;;;;;;;;;5066017;28;20226;-60
2023/01/10 09:23:33;;;;;;;7.10;2.47;;;;;;;;;;5076896;28;20249;-59
2023/01/10 09:26:03;;;;;;;5.63;2.43;;;;;;;;;;5076786;28;20220;-60
2023/01/10 09:28:31;;;;;;;9.27;2.60;;;;;;;;;;5077518;28;20217;-58
2023/01/10 09:31:00;;;;;;;11.33;2.77;;;;;;;;;;5077046;28;20212;-61
2023/01/10 09:33:29;;;;;;;3.63;2.00;;;;;;;;;;5077109;28;20632;-60
2023/01/10 09:36:14;;;;;;;5.93;2.13;;;;;;;;;;5077053;28;20251;-59
2023/01/10 09:38:43;;;;;;;8.17;2.17;;;;;;;;;;5072597;28;20199;-61
2023/01/10 09:41:24;;;;;;;5.77;2.23;;;;;;;;;;5077394;28;20636;-61
2023/01/10 09:43:58;;;;;;;4.03;2.37;;;;;;;;;;5073413;28;20222;-62
2023/01/10 09:46:33;;;;;;;7.23;2.10;;;;;;;;;;5077334;28;20209;-61
2023/01/10 09:49:07;;;;;;;5.87;2.23;;;;;;;;;;5077510;28;20280;-64
2023/01/10 09:51:36;;;;;;;7.57;2.40;;;;;;;;;;5078688;28;20289;-61
2023/01/10 09:54:06;;;;;;;7.17;2.47;;;;;;;;;;5090281;28;20261;-61
2023/01/10 09:56:39;;;;;;;8.13;2.70;;;;;;;;;;5077394;28;20238;-61
2023/01/10 09:59:11;;;;;;;11.17;2.30;;;;;;;;;;5077437;28;20217;-61
2023/01/10 10:01:40;;;;;;;10.93;2.73;;;;;;;;;;5077243;28;20230;-61
2023/01/10 10:04:16;;;;;;;7.20;2.90;;;;;;;;;;5080813;28;20225;-61
2023/01/10 10:06:44;;;;;;;5.63;2.37;;;;;;;;;;5080925;28;20210;-61
2023/01/10 10:09:17;;;;;;;6.53;3.17;;;;;;;;;;5081334;28;20275;-61
2023/01/10 10:11:50;;;;;;;9.33;2.67;;;;;;;;;;5080760;28;20201;-61
2023/01/10 10:14:26;;;;;;;10.70;2.43;;;;;;;;;;5080893;28;20230;-61
2023/01/10 10:17:01;;;;;;;5.90;2.23;;;;;;;;;;5080880;28;20206;-61
2023/01/10 10:19:34;;;;;;;12.70;2.80;;;;;;;;;;5076307;28;20217;-61
2023/01/10 10:22:08;;;;;;;5.27;2.53;;;;;;;;;;5073715;28;20237;-61
2023/01/10 10:24:43;;;;;;;6.40;2.93;;;;;;;;;;5075807;28;20626;-61
2023/01/10 10:27:16;;;;;;;4.27;2.33;;;;;;;;;;5080954;28;20205;-62
2023/01/10 10:29:50;;;;;;;6.73;1.83;;;;;;;;;;5079867;28;20699;-61
2023/01/10 10:32:30;;;;;;;9.53;2.17;;;;;;;;;;5080953;28;20255;-61
2023/01/10 10:35:02;;;;;;;6.73;2.10;;;;;;;;;;5072087;28;20234;-61
2023/01/10 10:37:32;;;;;;;6.80;1.90;;;;;;;;;;5079090;28;20260;-61
2023/01/10 10:40:02;;;;;;;6.97;1.87;;;;;;;;;;5080226;28;20723;-59
2023/01/10 10:42:32;;;;;;;7.47;2.13;;;;;;;;;;5079916;28;20233;-59
2023/01/10 10:45:03;;;;;;;11.27;2.70;;;;;;;;;;5080036;28;20206;-61
2023/01/10 10:47:33;;;;;;;12.47;2.30;;;;;;;;;;5080315;28;20230;-61
2023/01/10 10:50:07;;;;;;;10.00;2.70;;;;;;;;;;5076218;28;20210;-60
2023/01/10 10:52:36;;;;;;;8.87;2.10;;;;;;;;;;5077520;28;20598;-60
2023/01/10 10:55:05;;;;;;;8.07;1.93;;;;;;;;;;5079558;28;20760;-60
2023/01/10 10:57:35;;;;;;;9.17;2.07;;;;;;;;;;5079389;28;20234;-61
2023/01/10 11:00:06;;;;;;;17.27;2.93;;;;;;;;;;5079266;28;20241;-60
2023/01/10 11:02:40;;;;;;;5.93;2.13;;;;;;;;;;5079424;28;20230;-61
2023/01/10 11:05:16;;;;;;;4.90;1.90;;;;;;;;;;5079284;28;20649;-61
2023/01/10 11:07:45;;;;;;;5.10;2.43;;;;;;;;;;5079025;28;20205;-60
2023/01/10 11:12:56;;;;;;;9.00;2.63;;;;;;;;;;5078408;28;20307;-60
2023/01/10 11:15:39;;;;;;;11.87;2.47;;;;;;;;;;5078292;28;20260;-60
2023/01/10 11:18:10;;;;;;;7.93;2.13;;;;;;;;;;5079316;28;20206;-59
2023/01/10 11:20:46;;;;;;;7.30;2.27;;;;;;;;;;5074228;28;20202;-60
2023/01/10 11:23:22;;;;;;;8.57;2.43;;;;;;;;;;5079105;28;20221;-60
2023/01/10 11:25:50;;;;;;;7.80;2.50;;;;;;;;;;5078814;28;20210;-60
2023/01/10 11:28:21;;;;;;;4.63;1.73;;;;;;;;;;5075346;28;20230;-60
2023/01/10 11:30:50;;;;;;;13.07;3.63;;;;;;;;;;5078973;28;20216;-59
2023/01/10 11:33:21;;;;;;;7.30;1.83;;;;;;;;;;5078575;28;20305;-59
2023/01/10 11:36:01;;;;;;;5.23;1.93;;;;;;;;;;5078772;28;20202;-59
2023/01/10 11:38:30;;;;;;;9.63;2.33;;;;;;;;;;5069448;28;20213;-61
2023/01/10 11:41:00;;;;;;;9.00;2.20;;;;;;;;;;5078675;28;20203;-60
2023/01/10 11:43:30;;;;;;;5.60;1.50;;;;;;;;;;5078413;28;20229;-61
2023/01/10 11:46:01;;;;;;;4.00;2.10;;;;;;;;;;5078404;28;20220;-61
2023/01/10 11:48:39;;;;;;;5.77;2.57;;;;;;;;;;5078985;28;20256;-60
2023/01/10 11:51:29;;;;;;;9.07;2.50;;;;;;;;;;5078529;28;20202;-61
2023/01/10 11:53:58;;;;;;;9.83;2.20;;;;;;;;;;5078686;28;20233;-61
2023/01/10 11:56:27;;;;;;;7.87;2.10;;;;;;;;;;5079029;28;20221;-61
2023/01/10 11:58:57;;;;;;;9.00;1.77;;;;;;;;;;5078708;28;20670;-61
2023/01/10 12:01:26;;;;;;;5.33;1.57;;;;;;;;;;5066980;28;20317;-61
2023/01/10 12:03:55;;;;;;;9.93;1.97;;;;;;;;;;5078513;28;20230;-61
2023/01/10 12:06:25;;;;;;;5.17;1.67;;;;;;;;;;5078329;28;20210;-61
2023/01/10 12:08:58;;;;;;;4.67;1.43;;;;;;;;;;5078099;28;20558;-61
2023/01/10 12:11:28;;;;;;;8.13;2.10;;;;;;;;;;5078192;28;20206;-62
2023/01/10 12:13:57;;;;;;;6.37;1.50;;;;;;;;;;5076016;28;20218;-62
2023/01/10 12:16:29;;;;;;;6.27;1.57;;;;;;;;;;5077792;28;20654;-62
2023/01/10 12:18:59;;;;;;;7.83;1.70;;;;;;;;;;5078618;28;20210;-62
2023/01/10 12:21:30;;;;;;;4.10;1.63;;;;;;;;;;5076990;28;20268;-61
2023/01/10 12:24:00;;;;;;;4.13;1.80;;;;;;;;;;5077748;28;20245;-61
2023/01/10 12:26:30;;;;;;;8.03;1.83;;;;;;;;;;5077221;28;20268;-60
2023/01/10 12:28:59;;;;;;;7.10;1.60;;;;;;;;;;5077799;28;20199;-60
2023/01/10 12:31:29;;;;;;;6.53;1.97;;;;;;;;;;5078049;28;20208;-62
2023/01/10 12:34:01;;;;;;;7.50;1.80;;;;;;;;;;5077662;28;20578;-62
2023/01/10 12:36:36;;;;;;;5.97;1.97;;;;;;;;;;5077935;28;20550;-62
2023/01/10 12:39:13;;;;;;;7.60;1.60;;;;;;;;;;5077919;28;20571;-62
2023/01/10 12:44:34;;;;;;;5.23;1.93;;;;;;;;;;5078221;28;20313;-62
2023/01/10 12:47:05;;;;;;;4.57;1.83;;;;;;;;;;5078056;28;20578;-62
2023/01/10 12:49:44;;;;;;;7.20;1.67;;;;;;;;;;5078160;28;20237;-62
2023/01/10 12:52:14;;;;;;;7.60;1.87;;;;;;;;;;5078087;28;20212;-62
2023/01/10 12:54:46;;;;;;;9.30;1.87;;;;;;;;;;5077794;28;20210;-62
2023/01/10 12:57:20;;;;;;;11.27;2.23;;;;;;;;;;5077926;28;20212;-63
2023/01/10 12:59:48;;;;;;;8.90;2.20;;;;;;;;;;5077639;28;20203;-62
2023/01/10 13:02:18;;;;;;;5.47;1.87;;;;;;;;;;5077579;28;20692;-62
2023/01/10 13:04:49;;;;;;;11.57;2.80;;;;;;;;;;5078018;28;20300;-62
2023/01/10 13:07:18;;;;;;;11.67;3.33;;;;;;;;;;5089567;28;20619;-62
2023/01/10 13:09:48;;;;;;;6.63;1.80;;;;;;;;;;5077170;28;20209;-62
2023/01/10 13:12:20;;;;;;;17.00;2.67;;;;;;;;;;5077259;28;20198;-60
2023/01/10 13:14:51;;;;;;;6.40;2.20;;;;;;;;;;5077187;28;20256;-60
2023/01/10 13:17:26;;;;;;;9.17;2.60;;;;;;;;;;5076656;28;20228;-61
2023/01/10 13:20:13;;;;;;;5.87;1.73;;;;;;;;;;5077568;28;20263;-61
2023/01/10 13:22:41;;;;;;;6.83;2.30;;;;;;;;;;5065600;28;20221;-62
2023/01/10 13:25:21;;;;;;;7.27;1.90;;;;;;;;;;5077494;28;20214;-62
2023/01/10 13:27:55;;;;;;;7.87;2.03;;;;;;;;;;5077493;28;20206;-62
2023/01/10 13:30:28;;;;;;;12.90;2.97;;;;;;;;;;5077327;28;20210;-60
2023/01/10 13:32:59;;;;;;;6.67;1.90;;;;;;;;;;5076225;28;20707;-61
2023/01/10 13:35:28;;;;;;;9.17;2.07;;;;;;;;;;5073829;28;20252;-61
2023/01/10 13:37:56;;;;;;;10.43;2.20;;;;;;;;;;5072676;28;20202;-60
2023/01/10 13:40:29;;;;;;;5.67;2.07;;;;;;;;;;5079529;28;20213;-60
2023/01/10 13:43:17;;;;;;;3.67;1.90;;;;;;;;;;5079201;28;20693;-60
2023/01/10 13:45:46;;;;;;;5.77;2.10;;;;;;;;;;5078992;28;20198;-61
2023/01/10 13:48:25;;;;;;;5.70;1.90;;;;;;;;;;5079500;28;20199;-60
2023/01/10 13:51:12;;;;;;;4.53;1.97;;;;;;;;;;5077065;28;20202;-60
2023/01/10 13:54:01;;;;;;;7.90;2.20;;;;;;;;;;5079003;28;20653;-61
2023/01/10 13:56:35;;;;;;;6.57;2.20;;;;;;;;;;5076430;28;20202;-61
2023/01/10 14:04:38;;;;;;;4.63;1.80;;;;;;;;;;5079585;28;20222;-61
2023/01/10 14:07:12;;;;;;;11.07;2.20;;;;;;;;;;5076832;28;20210;-60
2023/01/10 14:09:44;;;;;;;5.50;2.17;;;;;;;;;;5079339;28;20206;-60
2023/01/10 14:12:25;;;;;;;7.10;2.27;;;;;;;;;;5079365;28;20205;-60
2023/01/10 14:14:55;;;;;;;5.73;2.10;;;;;;;;;;5077167;28;20213;-60
2023/01/10 14:17:25;;;;;;;4.93;1.70;;;;;;;;;;5079333;28;20208;-60
2023/01/10 14:20:01;;;;;;;6.43;1.70;;;;;;;;;;5079046;28;20241;-60
2023/01/10 14:22:31;;;;;;;5.93;2.07;;;;;;;;;;5076834;28;20222;-60
2023/01/10 14:24:59;;;;;;;4.97;2.00;;;;;;;;;;5080269;28;20206;-60
2023/01/10 14:27:32;;;;;;;5.73;2.30;;;;;;;;;;5080021;28;20229;-60
2023/01/10 14:30:01;;;;;;;7.53;1.87;;;;;;;;;;5079398;28;20559;-61
2023/01/10 14:32:33;;;;;;;4.20;1.73;;;;;;;;;;5076909;28;20202;-61
2023/01/10 14:35:02;;;;;;;5.43;1.70;;;;;;;;;;5079617;28;20226;-62
2023/01/10 14:37:36;;;;;;;8.20;1.63;;;;;;;;;;5077488;28;20205;-60
2023/01/10 14:40:14;;;;;;;6.50;1.77;;;;;;;;;;5076362;28;20294;-61
2023/01/10 14:42:44;;;;;;;20.60;2.27;;;;;;;;;;5078738;28;20585;-60
2023/01/10 14:45:18;;;;;;;4.27;1.60;;;;;;;;;;5078830;28;20213;-60
2023/01/10 14:47:48;;;;;;;9.93;2.17;;;;;;;;;;5066173;28;20225;-59
2023/01/10 14:50:23;;;;;;;13.00;2.43;;;;;;;;;;5065137;28;20222;-60
2023/01/10 14:52:51;;;;;;;10.90;2.00;;;;;;;;;;5061309;28;20268;-60
2023/01/10 14:55:20;;;;;;;6.27;2.10;;;;;;;;;;5063500;28;20245;-61
2023/01/10 14:57:57;;;;;;;15.93;3.30;;;;;;;;;;5071354;28;20234;-61
2023/01/10 15:00:26;;;;;;;13.83;2.70;;;;;;;;;;5061241;28;20566;-60
2023/01/10 15:02:54;;;;;;;12.43;3.20;;;;;;;;;;5059370;28;20254;-61
2023/01/10 15:05:24;;;;;;;11.33;2.80;;;;;;;;;;5060943;28;20234;-60
2023/01/10 15:07:52;;;;;;;15.50;3.00;;;;;;;;;;5063338;28;20282;-60
2023/01/10 15:10:23;;;;;;;11.27;2.60;;;;;;;;;;5059652;28;20199;-60
2023/01/10 15:12:51;;;;;;;45.20;5.97;;;;;;;;;;5076859;28;20644;-60
2023/01/10 15:15:24;;;;;;;19.73;3.37;;;;;;;;;;5077977;28;20204;-60
2023/01/10 15:17:52;;;;;;;7.63;1.77;;;;;;;;;;5075835;28;20297;-60
2023/01/10 15:20:21;;;;;;;9.37;2.63;;;;;;;;;;5078023;28;20214;-60
2023/01/10 15:22:54;;;;;;;8.10;2.17;;;;;;;;;;5075342;28;20250;-59
2023/01/10 15:25:27;;;;;;;9.90;2.53;;;;;;;;;;5073923;28;20205;-61
2023/01/10 15:27:56;;;;;;;5.47;2.10;;;;;;;;;;5074014;28;20206;-61